sensor_id;sensor_type;location;lat;lon;timestamp;temperature;humidity
9949;DHT22;5013;51.840;8.276;2023-02-28T00:00:12;-0.10;1.00
9949;DHT22;5013;51.840;8.276;2023-02-28T00:02:40;-0.10;1.00
9949;DHT22;5013;51.840;8.276;2023-02-28T00:05:07;-0.10;1.00
9949;DHT22;5013;51.840;8.276;2023-02-28T00:07:33;-0.20;1.00
9949;DHT22;5013;51.840;8.276;2023-02-28T00:09:59;-0.20;1.00
9949;DHT22;5013;51.840;8.276;2023-02-28T00:12:25;-0.30;1.00
9949;DHT22;5013;51.840;8.276;2023-02-28T00:14:51;-0.30;1.00
9949;DHT22;5013;51.840;8.276;2023-02-28T00:17:17;-0.30;1.00
9949;DHT22;5013;51.840;8.276;2023-02-28T00:19:50;-0.30;1.00
9949;DHT22;5013;51.840;8.276;2023-02-28T00:22:16;-0.40;1.00
9949;DHT22;5013;51.840;8.276;2023-02-28T00:24:42;-0.40;1.00
9949;DHT22;5013;51.840;8.276;2023-02-28T00:27:08;-0.50;1.00
9949;DHT22;5013;51.840;8.276;2023-02-28T00:29:33;-0.60;1.00
9949;DHT22;5013;51.840;8.276;2023-02-28T00:32:00;-0.50;1.00
9949;DHT22;5013;51.840;8.276;2023-02-28T00:34:25;-0.50;1.00
9949;DHT22;5013;51.840;8.276;2023-02-28T00:36:51;-0.40;1.00
9949;DHT22;5013;51.840;8.276;2023-02-28T00:39:17;-0.40;1.00
9949;DHT22;5013;51.840;8.276;2023-02-28T00:41:43;-0.40;1.00
9949;DHT22;5013;51.840;8.276;2023-02-28T00:44:09;-0.40;1.00
9949;DHT22;5013;51.840;8.276;2023-02-28T00:46:34;-0.30;1.00
9949;DHT22;5013;51.840;8.276;2023-02-28T00:49:00;-0.30;1.00
9949;DHT22;5013;51.840;8.276;2023-02-28T00:51:26;-0.20;1.00
9949;DHT22;5013;51.840;8.276;2023-02-28T00:53:51;-0.20;1.00
9949;DHT22;5013;51.840;8.276;2023-02-28T00:56:17;-0.40;1.00
9949;DHT22;5013;51.840;8.276;2023-02-28T00:58:42;-0.40;1.00
9949;DHT22;5013;51.840;8.276;2023-02-28T01:01:08;-0.40;1.00
9949;DHT22;5013;51.840;8.276;2023-02-28T01:03:34;-0.30;1.00
9949;DHT22;5013;51.840;8.276;2023-02-28T01:06:00;-0.30;1.00
9949;DHT22;5013;51.840;8.276;2023-02-28T01:08:25;-0.30;1.00
9949;DHT22;5013;51.840;8.276;2023-02-28T01:10:52;-0.30;1.00
9949;DHT22;5013;51.840;8.276;2023-02-28T01:13:18;-0.30;1.00
9949;DHT22;5013;51.840;8.276;2023-02-28T01:15:49;-0.30;1.00
9949;DHT22;5013;51.840;8.276;2023-02-28T01:18:15;-0.30;1.00
9949;DHT22;5013;51.840;8.276;2023-02-28T01:20:40;-0.40;1.00
9949;DHT22;5013;51.840;8.276;2023-02-28T01:23:06;-0.40;1.00
9949;DHT22;5013;51.840;8.276;2023-02-28T01:25:37;-0.50;13.30
9949;DHT22;5013;51.840;8.276;2023-02-28T01:28:03;-0.40;51.90
9949;DHT22;5013;51.840;8.276;2023-02-28T01:30:28;-0.50;65.60
9949;DHT22;5013;51.840;8.276;2023-02-28T01:32:54;-0.60;57.90
9949;DHT22;5013;51.840;8.276;2023-02-28T01:35:20;-0.60;90.90
9949;DHT22;5013;51.840;8.276;2023-02-28T01:37:45;-0.70;99.90
9949;DHT22;5013;51.840;8.276;2023-02-28T01:40:11;-0.70;99.90
9949;DHT22;5013;51.840;8.276;2023-02-28T01:42:37;-0.70;1.00
9949;DHT22;5013;51.840;8.276;2023-02-28T01:45:22;-0.80;1.00
9949;DHT22;5013;51.840;8.276;2023-02-28T01:47:53;-0.80;99.90
9949;DHT22;5013;51.840;8.276;2023-02-28T01:50:24;-0.80;99.90
9949;DHT22;5013;51.840;8.276;2023-02-28T01:52:52;-0.90;99.90
9949;DHT22;5013;51.840;8.276;2023-02-28T01:55:20;-0.90;1.00
9949;DHT22;5013;51.840;8.276;2023-02-28T01:57:50;-0.90;1.00
9949;DHT22;5013;51.840;8.276;2023-02-28T02:00:20;-1.00;1.00
9949;DHT22;5013;51.840;8.276;2023-02-28T02:02:49;-1.00;1.00
9949;DHT22;5013;51.840;8.276;2023-02-28T02:05:27;-1.10;1.00
9949;DHT22;5013;51.840;8.276;2023-02-28T02:08:04;-1.10;1.00
9949;DHT22;5013;51.840;8.276;2023-02-28T02:10:39;-1.10;1.00
9949;DHT22;5013;51.840;8.276;2023-02-28T02:16:33;-1.20;1.00
9949;DHT22;5013;51.840;8.276;2023-02-28T02:25:11;-1.20;1.00
9949;DHT22;5013;51.840;8.276;2023-02-28T02:33:10;-1.30;1.00
9949;DHT22;5013;51.840;8.276;2023-02-28T02:39:06;-1.30;1.00
9949;DHT22;5013;51.840;8.276;2023-02-28T02:41:52;-1.40;1.00
9949;DHT22;5013;51.840;8.276;2023-02-28T02:44:31;-1.40;1.00
9949;DHT22;5013;51.840;8.276;2023-02-28T02:47:12;-1.40;1.00
9949;DHT22;5013;51.840;8.276;2023-02-28T02:49:40;-1.50;1.00
9949;DHT22;5013;51.840;8.276;2023-02-28T02:52:10;-1.50;1.00
9949;DHT22;5013;51.840;8.276;2023-02-28T02:54:40;-1.50;1.00
9949;DHT22;5013;51.840;8.276;2023-02-28T02:57:25;-1.50;1.00
9949;DHT22;5013;51.840;8.276;2023-02-28T02:59:55;-1.60;1.00
9949;DHT22;5013;51.840;8.276;2023-02-28T03:02:22;-1.60;1.00
9949;DHT22;5013;51.840;8.276;2023-02-28T03:04:59;-1.50;1.00
9949;DHT22;5013;51.840;8.276;2023-02-28T03:07:26;-1.50;1.00
9949;DHT22;5013;51.840;8.276;2023-02-28T03:09:53;-1.60;1.00
9949;DHT22;5013;51.840;8.276;2023-02-28T03:12:20;-1.60;1.00
9949;DHT22;5013;51.840;8.276;2023-02-28T03:14:56;-1.60;1.00
9949;DHT22;5013;51.840;8.276;2023-02-28T03:23:19;-1.70;1.00
9949;DHT22;5013;51.840;8.276;2023-02-28T03:31:57;-1.90;1.00
9949;DHT22;5013;51.840;8.276;2023-02-28T03:34:17;-1.90;99.90
9949;DHT22;5013;51.840;8.276;2023-02-28T03:36:48;-1.90;1.00
9949;DHT22;5013;51.840;8.276;2023-02-28T03:39:24;-1.90;1.00
9949;DHT22;5013;51.840;8.276;2023-02-28T03:42:01;-1.90;1.00
9949;DHT22;5013;51.840;8.276;2023-02-28T03:44:52;-1.90;1.00
9949;DHT22;5013;51.840;8.276;2023-02-28T03:47:28;-1.90;1.00
9949;DHT22;5013;51.840;8.276;2023-02-28T03:50:05;-1.90;1.00
9949;DHT22;5013;51.840;8.276;2023-02-28T03:52:36;-1.90;1.00
9949;DHT22;5013;51.840;8.276;2023-02-28T03:55:07;-2.00;1.00
9949;DHT22;5013;51.840;8.276;2023-02-28T04:00:24;-2.00;1.00
9949;DHT22;5013;51.840;8.276;2023-02-28T04:02:54;-2.10;1.00
9949;DHT22;5013;51.840;8.276;2023-02-28T04:05:20;-2.10;99.90
9949;DHT22;5013;51.840;8.276;2023-02-28T04:07:46;-2.10;99.90
9949;DHT22;5013;51.840;8.276;2023-02-28T04:10:12;-2.20;99.90
9949;DHT22;5013;51.840;8.276;2023-02-28T04:12:38;-2.20;74.00
9949;DHT22;5013;51.840;8.276;2023-02-28T04:15:04;-2.20;99.90
9949;DHT22;5013;51.840;8.276;2023-02-28T04:17:30;-2.20;99.90
9949;DHT22;5013;51.840;8.276;2023-02-28T04:19:56;-2.20;47.60
9949;DHT22;5013;51.840;8.276;2023-02-28T04:22:22;-2.30;1.00
9949;DHT22;5013;51.840;8.276;2023-02-28T04:24:51;-2.30;99.90
9949;DHT22;5013;51.840;8.276;2023-02-28T04:27:16;-2.30;99.90
9949;DHT22;5013;51.840;8.276;2023-02-28T04:29:42;-2.30;99.90
9949;DHT22;5013;51.840;8.276;2023-02-28T04:32:10;-2.30;99.90
9949;DHT22;5013;51.840;8.276;2023-02-28T04:34:36;-2.30;99.90
9949;DHT22;5013;51.840;8.276;2023-02-28T04:37:02;-2.40;1.00
9949;DHT22;5013;51.840;8.276;2023-02-28T04:39:28;-2.40;99.90
9949;DHT22;5013;51.840;8.276;2023-02-28T04:41:55;-2.40;99.90
9949;DHT22;5013;51.840;8.276;2023-02-28T04:44:21;-2.50;1.00
9949;DHT22;5013;51.840;8.276;2023-02-28T04:46:48;-2.50;1.00
9949;DHT22;5013;51.840;8.276;2023-02-28T04:49:14;-2.50;1.00
9949;DHT22;5013;51.840;8.276;2023-02-28T04:51:40;-2.50;1.00
9949;DHT22;5013;51.840;8.276;2023-02-28T04:54:06;-2.50;1.00
9949;DHT22;5013;51.840;8.276;2023-02-28T04:56:32;-2.60;1.00
9949;DHT22;5013;51.840;8.276;2023-02-28T04:58:58;-2.60;1.00
9949;DHT22;5013;51.840;8.276;2023-02-28T05:03:51;-2.50;1.00
9949;DHT22;5013;51.840;8.276;2023-02-28T05:06:17;-2.60;1.00
9949;DHT22;5013;51.840;8.276;2023-02-28T05:08:43;-2.60;99.90
9949;DHT22;5013;51.840;8.276;2023-02-28T05:11:15;-2.60;99.90
9949;DHT22;5013;51.840;8.276;2023-02-28T05:13:41;-2.70;1.00
9949;DHT22;5013;51.840;8.276;2023-02-28T05:16:07;-2.70;1.00
9949;DHT22;5013;51.840;8.276;2023-02-28T05:18:32;-2.70;1.00
9949;DHT22;5013;51.840;8.276;2023-02-28T05:20:59;-2.70;1.00
9949;DHT22;5013;51.840;8.276;2023-02-28T05:23:26;-2.70;1.00
9949;DHT22;5013;51.840;8.276;2023-02-28T05:25:53;-2.70;99.90
9949;DHT22;5013;51.840;8.276;2023-02-28T05:28:19;-2.70;99.90
9949;DHT22;5013;51.840;8.276;2023-02-28T05:30:45;-2.70;99.90
9949;DHT22;5013;51.840;8.276;2023-02-28T05:33:11;-2.70;99.90
9949;DHT22;5013;51.840;8.276;2023-02-28T05:35:41;-2.80;99.90
9949;DHT22;5013;51.840;8.276;2023-02-28T05:38:08;-2.70;99.90
9949;DHT22;5013;51.840;8.276;2023-02-28T05:40:34;-2.80;99.90
9949;DHT22;5013;51.840;8.276;2023-02-28T05:43:00;-2.80;99.90
9949;DHT22;5013;51.840;8.276;2023-02-28T05:45:26;-2.90;1.00
9949;DHT22;5013;51.840;8.276;2023-02-28T05:47:55;-2.90;1.00
9949;DHT22;5013;51.840;8.276;2023-02-28T05:50:21;-2.90;1.00
9949;DHT22;5013;51.840;8.276;2023-02-28T05:52:52;-3.00;1.00
9949;DHT22;5013;51.840;8.276;2023-02-28T05:55:18;-3.00;1.00
9949;DHT22;5013;51.840;8.276;2023-02-28T05:57:44;-3.00;1.00
9949;DHT22;5013;51.840;8.276;2023-02-28T06:00:10;-3.00;1.00
9949;DHT22;5013;51.840;8.276;2023-02-28T06:02:38;-3.00;1.00
9949;DHT22;5013;51.840;8.276;2023-02-28T06:05:04;-3.10;1.00
9949;DHT22;5013;51.840;8.276;2023-02-28T06:07:29;-3.20;24.90
9949;DHT22;5013;51.840;8.276;2023-02-28T06:09:55;-3.10;99.90
9949;DHT22;5013;51.840;8.276;2023-02-28T06:12:20;-3.10;1.00
9949;DHT22;5013;51.840;8.276;2023-02-28T06:14:46;-3.10;1.00
9949;DHT22;5013;51.840;8.276;2023-02-28T06:17:11;-3.10;1.00
9949;DHT22;5013;51.840;8.276;2023-02-28T06:19:38;-3.10;1.00
9949;DHT22;5013;51.840;8.276;2023-02-28T06:22:04;-3.10;99.90
9949;DHT22;5013;51.840;8.276;2023-02-28T06:24:30;-3.10;99.90
9949;DHT22;5013;51.840;8.276;2023-02-28T06:26:56;-3.10;99.90
9949;DHT22;5013;51.840;8.276;2023-02-28T06:29:24;-3.00;99.90
9949;DHT22;5013;51.840;8.276;2023-02-28T06:31:50;-3.00;1.00
9949;DHT22;5013;51.840;8.276;2023-02-28T06:34:16;-3.00;1.00
9949;DHT22;5013;51.840;8.276;2023-02-28T06:36:42;-3.00;1.00
9949;DHT22;5013;51.840;8.276;2023-02-28T06:39:08;-2.90;1.00
9949;DHT22;5013;51.840;8.276;2023-02-28T06:41:34;-2.90;99.90
9949;DHT22;5013;51.840;8.276;2023-02-28T06:44:04;-2.90;99.90
9949;DHT22;5013;51.840;8.276;2023-02-28T06:46:31;-2.80;99.90
9949;DHT22;5013;51.840;8.276;2023-02-28T06:48:56;-2.80;99.90
9949;DHT22;5013;51.840;8.276;2023-02-28T06:51:22;-2.80;99.90
9949;DHT22;5013;51.840;8.276;2023-02-28T06:53:50;-2.80;1.00
9949;DHT22;5013;51.840;8.276;2023-02-28T06:56:17;-2.80;1.00
9949;DHT22;5013;51.840;8.276;2023-02-28T06:58:49;-2.80;1.00
9949;DHT22;5013;51.840;8.276;2023-02-28T07:01:15;-2.70;99.90
9949;DHT22;5013;51.840;8.276;2023-02-28T07:03:41;-2.60;99.90
9949;DHT22;5013;51.840;8.276;2023-02-28T07:06:06;-2.60;99.90
9949;DHT22;5013;51.840;8.276;2023-02-28T07:08:33;-2.50;99.90
9949;DHT22;5013;51.840;8.276;2023-02-28T07:10:59;-2.50;99.90
9949;DHT22;5013;51.840;8.276;2023-02-28T07:13:25;-2.40;99.90
9949;DHT22;5013;51.840;8.276;2023-02-28T07:18:23;-2.20;99.90
9949;DHT22;5013;51.840;8.276;2023-02-28T07:20:49;-2.20;68.10
9949;DHT22;5013;51.840;8.276;2023-02-28T07:23:15;-2.00;1.00
9949;DHT22;5013;51.840;8.276;2023-02-28T07:25:41;-1.90;1.00
9949;DHT22;5013;51.840;8.276;2023-02-28T07:28:06;-1.70;1.00
9949;DHT22;5013;51.840;8.276;2023-02-28T07:30:32;-1.60;1.00
9949;DHT22;5013;51.840;8.276;2023-02-28T07:32:57;-1.50;1.00
9949;DHT22;5013;51.840;8.276;2023-02-28T07:35:23;-1.40;1.00
9949;DHT22;5013;51.840;8.276;2023-02-28T07:37:49;-1.20;1.00
9949;DHT22;5013;51.840;8.276;2023-02-28T07:40:15;-1.00;99.90
9949;DHT22;5013;51.840;8.276;2023-02-28T07:42:41;-0.80;99.90
9949;DHT22;5013;51.840;8.276;2023-02-28T07:45:08;-0.60;99.90
9949;DHT22;5013;51.840;8.276;2023-02-28T07:47:37;-0.40;12.60
9949;DHT22;5013;51.840;8.276;2023-02-28T07:50:03;-0.20;1.00
9949;DHT22;5013;51.840;8.276;2023-02-28T07:52:28;0.00;99.90
9949;DHT22;5013;51.840;8.276;2023-02-28T07:54:54;0.30;99.90
9949;DHT22;5013;51.840;8.276;2023-02-28T07:57:19;0.50;1.00
9949;DHT22;5013;51.840;8.276;2023-02-28T07:59:45;0.80;1.00
9949;DHT22;5013;51.840;8.276;2023-02-28T08:02:15;1.00;99.90
9949;DHT22;5013;51.840;8.276;2023-02-28T08:04:40;1.20;7.40
9949;DHT22;5013;51.840;8.276;2023-02-28T08:07:06;1.30;1.00
9949;DHT22;5013;51.840;8.276;2023-02-28T08:09:32;1.40;99.90
9949;DHT22;5013;51.840;8.276;2023-02-28T08:11:57;1.60;99.90
9949;DHT22;5013;51.840;8.276;2023-02-28T08:14:23;1.60;1.00
9949;DHT22;5013;51.840;8.276;2023-02-28T08:16:48;1.70;1.00
9949;DHT22;5013;51.840;8.276;2023-02-28T08:19:14;1.90;1.00
9949;DHT22;5013;51.840;8.276;2023-02-28T08:21:39;2.00;1.00
9949;DHT22;5013;51.840;8.276;2023-02-28T08:24:05;2.10;1.00
9949;DHT22;5013;51.840;8.276;2023-02-28T08:26:31;2.10;1.00
9949;DHT22;5013;51.840;8.276;2023-02-28T08:28:57;2.30;1.00
9949;DHT22;5013;51.840;8.276;2023-02-28T08:31:22;2.30;99.90
9949;DHT22;5013;51.840;8.276;2023-02-28T08:33:48;2.40;99.90
9949;DHT22;5013;51.840;8.276;2023-02-28T08:36:16;2.50;99.90
9949;DHT22;5013;51.840;8.276;2023-02-28T08:38:42;2.50;99.90
9949;DHT22;5013;51.840;8.276;2023-02-28T08:41:10;2.60;99.90
9949;DHT22;5013;51.840;8.276;2023-02-28T08:43:36;2.80;99.90
9949;DHT22;5013;51.840;8.276;2023-02-28T08:46:02;2.80;99.90
9949;DHT22;5013;51.840;8.276;2023-02-28T08:48:29;2.90;99.90
9949;DHT22;5013;51.840;8.276;2023-02-28T08:51:07;3.00;99.90
9949;DHT22;5013;51.840;8.276;2023-02-28T08:53:35;3.10;99.90
9949;DHT22;5013;51.840;8.276;2023-02-28T08:56:07;3.20;99.90
9949;DHT22;5013;51.840;8.276;2023-02-28T08:58:33;3.20;99.90
9949;DHT22;5013;51.840;8.276;2023-02-28T09:00:59;3.40;99.90
9949;DHT22;5013;51.840;8.276;2023-02-28T09:03:26;3.40;99.90
9949;DHT22;5013;51.840;8.276;2023-02-28T09:05:58;3.60;99.90
9949;DHT22;5013;51.840;8.276;2023-02-28T09:08:25;3.60;99.90
9949;DHT22;5013;51.840;8.276;2023-02-28T09:10:51;3.70;99.90
9949;DHT22;5013;51.840;8.276;2023-02-28T09:13:18;3.80;99.90
9949;DHT22;5013;51.840;8.276;2023-02-28T09:15:44;3.80;95.90
9949;DHT22;5013;51.840;8.276;2023-02-28T09:18:09;3.90;94.30
9949;DHT22;5013;51.840;8.276;2023-02-28T09:20:38;3.90;91.20
9949;DHT22;5013;51.840;8.276;2023-02-28T09:23:05;3.90;77.60
9949;DHT22;5013;51.840;8.276;2023-02-28T09:25:31;3.90;85.10
9949;DHT22;5013;51.840;8.276;2023-02-28T09:27:57;4.00;54.70
9949;DHT22;5013;51.840;8.276;2023-02-28T09:30:22;4.00;82.70
9949;DHT22;5013;51.840;8.276;2023-02-28T09:32:48;4.20;44.90
9949;DHT22;5013;51.840;8.276;2023-02-28T09:35:24;4.30;51.00
9949;DHT22;5013;51.840;8.276;2023-02-28T09:37:51;4.30;24.40
9949;DHT22;5013;51.840;8.276;2023-02-28T09:40:22;4.50;26.10
9949;DHT22;5013;51.840;8.276;2023-02-28T09:42:51;4.60;8.60
9949;DHT22;5013;51.840;8.276;2023-02-28T09:45:29;4.70;15.20
9949;DHT22;5013;51.840;8.276;2023-02-28T09:47:59;4.90;1.00
9949;DHT22;5013;51.840;8.276;2023-02-28T09:50:34;5.00;1.00
9949;DHT22;5013;51.840;8.276;2023-02-28T09:53:49;5.00;1.00
9949;DHT22;5013;51.840;8.276;2023-02-28T09:55:55;4.90;1.00
9949;DHT22;5013;51.840;8.276;2023-02-28T09:58:28;5.00;1.00
9949;DHT22;5013;51.840;8.276;2023-02-28T10:01:05;4.80;1.00
9949;DHT22;5013;51.840;8.276;2023-02-28T10:06:48;5.20;1.00
9949;DHT22;5013;51.840;8.276;2023-02-28T10:09:24;5.30;1.00
9949;DHT22;5013;51.840;8.276;2023-02-28T10:11:52;5.40;1.00
9949;DHT22;5013;51.840;8.276;2023-02-28T10:14:22;5.30;1.00
9949;DHT22;5013;51.840;8.276;2023-02-28T10:16:58;5.40;1.00
9949;DHT22;5013;51.840;8.276;2023-02-28T10:22:31;5.40;1.00
9949;DHT22;5013;51.840;8.276;2023-02-28T10:24:59;5.40;1.00
9949;DHT22;5013;51.840;8.276;2023-02-28T10:27:30;5.30;1.00
9949;DHT22;5013;51.840;8.276;2023-02-28T10:29:59;5.20;1.00
9949;DHT22;5013;51.840;8.276;2023-02-28T10:32:26;5.00;1.00
9949;DHT22;5013;51.840;8.276;2023-02-28T10:35:16;5.00;1.00
9949;DHT22;5013;51.840;8.276;2023-02-28T10:37:45;5.10;1.00
9949;DHT22;5013;51.840;8.276;2023-02-28T10:43:07;5.30;1.00
9949;DHT22;5013;51.840;8.276;2023-02-28T10:46:03;5.40;1.00
9949;DHT22;5013;51.840;8.276;2023-02-28T10:51:00;5.50;1.00
9949;DHT22;5013;51.840;8.276;2023-02-28T10:53:38;5.60;1.00
9949;DHT22;5013;51.840;8.276;2023-02-28T11:03:51;5.50;1.00
9949;DHT22;5013;51.840;8.276;2023-02-28T11:06:22;5.60;1.00
9949;DHT22;5013;51.840;8.276;2023-02-28T11:08:52;5.60;1.00
9949;DHT22;5013;51.840;8.276;2023-02-28T11:11:20;5.70;1.00
9949;DHT22;5013;51.840;8.276;2023-02-28T11:13:47;5.70;1.00
9949;DHT22;5013;51.840;8.276;2023-02-28T11:16:14;5.70;1.00
9949;DHT22;5013;51.840;8.276;2023-02-28T11:21:09;5.70;4.00
9949;DHT22;5013;51.840;8.276;2023-02-28T11:23:37;5.60;1.00
9949;DHT22;5013;51.840;8.276;2023-02-28T11:26:05;5.50;25.90
9949;DHT22;5013;51.840;8.276;2023-02-28T11:28:41;5.60;12.00
9949;DHT22;5013;51.840;8.276;2023-02-28T11:36:31;5.90;1.00
9949;DHT22;5013;51.840;8.276;2023-02-28T11:39:00;6.20;1.00
9949;DHT22;5013;51.840;8.276;2023-02-28T11:41:52;6.20;1.00
9949;DHT22;5013;51.840;8.276;2023-02-28T11:47:00;6.10;1.00
9949;DHT22;5013;51.840;8.276;2023-02-28T11:50:05;6.00;1.00
9949;DHT22;5013;51.840;8.276;2023-02-28T12:09:28;5.20;1.00
9949;DHT22;5013;51.840;8.276;2023-02-28T12:15:11;5.10;13.30
9949;DHT22;5013;51.840;8.276;2023-02-28T12:20:38;5.00;34.70
9949;DHT22;5013;51.840;8.276;2023-02-28T12:26:02;5.30;23.20
9949;DHT22;5013;51.840;8.276;2023-02-28T12:28:39;5.20;46.30
9949;DHT22;5013;51.840;8.276;2023-02-28T12:33:47;5.50;1.00
9949;DHT22;5013;51.840;8.276;2023-02-28T12:36:17;5.80;1.00
9949;DHT22;5013;51.840;8.276;2023-02-28T12:38:49;6.00;1.00
9949;DHT22;5013;51.840;8.276;2023-02-28T12:41:20;6.20;1.00
9949;DHT22;5013;51.840;8.276;2023-02-28T12:44:16;6.30;1.00
9949;DHT22;5013;51.840;8.276;2023-02-28T12:46:50;6.50;1.00
9949;DHT22;5013;51.840;8.276;2023-02-28T12:49:39;6.50;1.00
9949;DHT22;5013;51.840;8.276;2023-02-28T12:52:04;6.70;1.00
9949;DHT22;5013;51.840;8.276;2023-02-28T12:54:54;6.70;1.00
9949;DHT22;5013;51.840;8.276;2023-02-28T13:00:16;6.70;1.00
9949;DHT22;5013;51.840;8.276;2023-02-28T13:05:43;6.70;1.00
9949;DHT22;5013;51.840;8.276;2023-02-28T13:08:27;6.90;1.00
9949;DHT22;5013;51.840;8.276;2023-02-28T13:11:01;7.00;1.00
9949;DHT22;5013;51.840;8.276;2023-02-28T13:13:29;7.10;1.00
9949;DHT22;5013;51.840;8.276;2023-02-28T13:16:08;7.00;1.00
9949;DHT22;5013;51.840;8.276;2023-02-28T13:21:01;7.50;1.00
9949;DHT22;5013;51.840;8.276;2023-02-28T13:26:21;7.70;1.00
9949;DHT22;5013;51.840;8.276;2023-02-28T13:28:59;7.70;1.00
9949;DHT22;5013;51.840;8.276;2023-02-28T13:31:25;7.90;1.00
9949;DHT22;5013;51.840;8.276;2023-02-28T13:38:55;7.80;1.00
9949;DHT22;5013;51.840;8.276;2023-02-28T13:44:07;7.30;1.00
9949;DHT22;5013;51.840;8.276;2023-02-28T13:46:36;7.50;1.00
9949;DHT22;5013;51.840;8.276;2023-02-28T13:49:28;7.40;1.00
9949;DHT22;5013;51.840;8.276;2023-02-28T13:54:40;7.70;1.00
9949;DHT22;5013;51.840;8.276;2023-02-28T14:05:43;7.50;1.00
9949;DHT22;5013;51.840;8.276;2023-02-28T14:08:20;7.40;1.00
9949;DHT22;5013;51.840;8.276;2023-02-28T14:11:02;7.40;1.00
9949;DHT22;5013;51.840;8.276;2023-02-28T14:13:45;7.40;1.00
9949;DHT22;5013;51.840;8.276;2023-02-28T14:16:14;7.40;1.00
9949;DHT22;5013;51.840;8.276;2023-02-28T14:18:56;7.30;1.00
9949;DHT22;5013;51.840;8.276;2023-02-28T14:21:27;7.40;1.00
9949;DHT22;5013;51.840;8.276;2023-02-28T14:33:01;7.20;1.00
9949;DHT22;5013;51.840;8.276;2023-02-28T14:38:07;7.10;1.00
9949;DHT22;5013;51.840;8.276;2023-02-28T14:40:38;7.10;1.00
9949;DHT22;5013;51.840;8.276;2023-02-28T14:43:20;7.10;1.00
9949;DHT22;5013;51.840;8.276;2023-02-28T14:45:55;7.20;1.00
9949;DHT22;5013;51.840;8.276;2023-02-28T14:48:22;7.20;1.00
9949;DHT22;5013;51.840;8.276;2023-02-28T14:50:52;7.10;1.00
9949;DHT22;5013;51.840;8.276;2023-02-28T14:53:20;7.00;1.00
9949;DHT22;5013;51.840;8.276;2023-02-28T14:55:48;7.00;1.00
9949;DHT22;5013;51.840;8.276;2023-02-28T14:58:40;7.10;1.00
9949;DHT22;5013;51.840;8.276;2023-02-28T15:01:09;7.10;1.00
9949;DHT22;5013;51.840;8.276;2023-02-28T15:03:37;7.00;1.00
9949;DHT22;5013;51.840;8.276;2023-02-28T15:06:06;7.00;1.00
9949;DHT22;5013;51.840;8.276;2023-02-28T15:08:37;6.90;1.00
9949;DHT22;5013;51.840;8.276;2023-02-28T15:11:06;6.90;1.00
9949;DHT22;5013;51.840;8.276;2023-02-28T15:13:37;6.90;1.00
9949;DHT22;5013;51.840;8.276;2023-02-28T15:16:10;6.90;1.00
9949;DHT22;5013;51.840;8.276;2023-02-28T15:18:44;6.80;1.00
9949;DHT22;5013;51.840;8.276;2023-02-28T15:21:15;6.70;1.00
9949;DHT22;5013;51.840;8.276;2023-02-28T15:23:45;6.70;1.00
9949;DHT22;5013;51.840;8.276;2023-02-28T15:26:18;6.60;1.00
9949;DHT22;5013;51.840;8.276;2023-02-28T15:28:45;6.60;1.00
9949;DHT22;5013;51.840;8.276;2023-02-28T15:31:33;6.50;1.00
9949;DHT22;5013;51.840;8.276;2023-02-28T15:34:03;6.50;1.00
9949;DHT22;5013;51.840;8.276;2023-02-28T15:36:32;6.50;1.00
9949;DHT22;5013;51.840;8.276;2023-02-28T15:38:59;6.40;1.00
9949;DHT22;5013;51.840;8.276;2023-02-28T15:41:27;6.30;1.00
9949;DHT22;5013;51.840;8.276;2023-02-28T15:44:28;6.20;1.00
9949;DHT22;5013;51.840;8.276;2023-02-28T15:47:04;6.30;1.00
9949;DHT22;5013;51.840;8.276;2023-02-28T15:49:43;6.20;1.00
9949;DHT22;5013;51.840;8.276;2023-02-28T15:52:16;6.10;1.00
9949;DHT22;5013;51.840;8.276;2023-02-28T15:54:43;6.10;1.00
9949;DHT22;5013;51.840;8.276;2023-02-28T15:57:21;6.10;1.00
9949;DHT22;5013;51.840;8.276;2023-02-28T16:00:00;6.00;1.00
9949;DHT22;5013;51.840;8.276;2023-02-28T16:02:39;5.90;1.00
9949;DHT22;5013;51.840;8.276;2023-02-28T16:07:34;5.80;1.00
9949;DHT22;5013;51.840;8.276;2023-02-28T16:10:00;5.80;1.00
9949;DHT22;5013;51.840;8.276;2023-02-28T16:12:28;5.70;1.00
9949;DHT22;5013;51.840;8.276;2023-02-28T16:14:56;5.70;1.00
9949;DHT22;5013;51.840;8.276;2023-02-28T16:17:25;5.70;1.00
9949;DHT22;5013;51.840;8.276;2023-02-28T16:19:52;5.60;1.00
9949;DHT22;5013;51.840;8.276;2023-02-28T16:22:18;5.50;1.00
9949;DHT22;5013;51.840;8.276;2023-02-28T16:24:43;5.60;1.00
9949;DHT22;5013;51.840;8.276;2023-02-28T16:27:31;5.60;1.00
9949;DHT22;5013;51.840;8.276;2023-02-28T16:29:57;5.60;1.00
9949;DHT22;5013;51.840;8.276;2023-02-28T16:32:23;5.50;1.00
9949;DHT22;5013;51.840;8.276;2023-02-28T16:34:49;5.50;1.00
9949;DHT22;5013;51.840;8.276;2023-02-28T16:37:17;5.40;1.00
9949;DHT22;5013;51.840;8.276;2023-02-28T16:39:43;5.30;1.00
9949;DHT22;5013;51.840;8.276;2023-02-28T16:42:20;5.20;1.00
9949;DHT22;5013;51.840;8.276;2023-02-28T16:44:48;5.10;1.00
9949;DHT22;5013;51.840;8.276;2023-02-28T16:47:13;5.10;1.00
9949;DHT22;5013;51.840;8.276;2023-02-28T16:49:39;5.00;1.00
9949;DHT22;5013;51.840;8.276;2023-02-28T16:52:07;4.90;1.00
9949;DHT22;5013;51.840;8.276;2023-02-28T16:54:33;4.80;1.00
9949;DHT22;5013;51.840;8.276;2023-02-28T16:56:59;4.70;1.00
9949;DHT22;5013;51.840;8.276;2023-02-28T16:59:26;4.70;14.50
9949;DHT22;5013;51.840;8.276;2023-02-28T17:01:52;4.60;26.90
9949;DHT22;5013;51.840;8.276;2023-02-28T17:04:17;4.60;25.80
9949;DHT22;5013;51.840;8.276;2023-02-28T17:06:43;4.50;67.10
9949;DHT22;5013;51.840;8.276;2023-02-28T17:09:18;4.50;82.40
9949;DHT22;5013;51.840;8.276;2023-02-28T17:11:45;4.40;99.90
9949;DHT22;5013;51.840;8.276;2023-02-28T17:14:11;4.30;99.90
9949;DHT22;5013;51.840;8.276;2023-02-28T17:16:38;4.20;99.90
9949;DHT22;5013;51.840;8.276;2023-02-28T17:19:08;4.20;99.90
9949;DHT22;5013;51.840;8.276;2023-02-28T17:21:36;4.10;99.90
9949;DHT22;5013;51.840;8.276;2023-02-28T17:24:03;4.10;99.90
9949;DHT22;5013;51.840;8.276;2023-02-28T17:26:29;4.00;99.90
9949;DHT22;5013;51.840;8.276;2023-02-28T17:28:56;3.90;99.90
9949;DHT22;5013;51.840;8.276;2023-02-28T17:31:23;3.90;99.90
9949;DHT22;5013;51.840;8.276;2023-02-28T17:33:49;3.80;99.90
9949;DHT22;5013;51.840;8.276;2023-02-28T17:36:16;3.80;99.90
9949;DHT22;5013;51.840;8.276;2023-02-28T17:38:43;3.70;99.90
9949;DHT22;5013;51.840;8.276;2023-02-28T17:41:12;3.70;99.90
9949;DHT22;5013;51.840;8.276;2023-02-28T17:43:37;3.60;99.90
9949;DHT22;5013;51.840;8.276;2023-02-28T17:46:03;3.60;99.90
9949;DHT22;5013;51.840;8.276;2023-02-28T17:48:31;3.50;99.90
9949;DHT22;5013;51.840;8.276;2023-02-28T17:50:57;3.50;99.90
9949;DHT22;5013;51.840;8.276;2023-02-28T17:53:22;3.40;99.90
9949;DHT22;5013;51.840;8.276;2023-02-28T17:55:51;3.40;1.00
9949;DHT22;5013;51.840;8.276;2023-02-28T17:58:17;3.40;1.00
9949;DHT22;5013;51.840;8.276;2023-02-28T18:00:44;3.30;1.00
9949;DHT22;5013;51.840;8.276;2023-02-28T18:03:09;3.30;1.00
9949;DHT22;5013;51.840;8.276;2023-02-28T18:05:36;3.30;1.00
9949;DHT22;5013;51.840;8.276;2023-02-28T18:08:02;3.20;1.00
9949;DHT22;5013;51.840;8.276;2023-02-28T18:10:28;3.20;1.00
9949;DHT22;5013;51.840;8.276;2023-02-28T18:12:54;3.20;1.00
9949;DHT22;5013;51.840;8.276;2023-02-28T18:15:20;3.20;1.00
9949;DHT22;5013;51.840;8.276;2023-02-28T18:17:47;3.10;1.00
9949;DHT22;5013;51.840;8.276;2023-02-28T18:20:13;3.10;1.00
9949;DHT22;5013;51.840;8.276;2023-02-28T18:22:40;3.00;1.00
9949;DHT22;5013;51.840;8.276;2023-02-28T18:25:07;2.90;1.00
9949;DHT22;5013;51.840;8.276;2023-02-28T18:27:34;2.90;1.00
9949;DHT22;5013;51.840;8.276;2023-02-28T18:30:01;2.90;1.00
9949;DHT22;5013;51.840;8.276;2023-02-28T18:32:28;2.90;1.00
9949;DHT22;5013;51.840;8.276;2023-02-28T18:34:53;2.80;34.50
9949;DHT22;5013;51.840;8.276;2023-02-28T18:37:19;2.80;52.00
9949;DHT22;5013;51.840;8.276;2023-02-28T18:39:45;2.70;92.80
9949;DHT22;5013;51.840;8.276;2023-02-28T18:42:11;2.70;94.80
9949;DHT22;5013;51.840;8.276;2023-02-28T18:44:37;2.70;99.90
9949;DHT22;5013;51.840;8.276;2023-02-28T18:47:02;2.70;99.90
9949;DHT22;5013;51.840;8.276;2023-02-28T18:49:30;2.60;99.90
9949;DHT22;5013;51.840;8.276;2023-02-28T18:51:58;2.60;99.90
9949;DHT22;5013;51.840;8.276;2023-02-28T18:54:23;2.60;99.90